Time;durP1;ratioP1;P1;durP2;ratioP2;P2;SDS_P1;SDS_P2;PMS_P1;PMS_P2;Temp;Humidity;BMP_temperature;BMP_pressure;BME280_temperature;BME280_humidity;BME280_pressure;Samples;Min_cycle;Max_cycle;Signal;HPM_P1;HPM_P2
2021/07/23 00:02:42;;;;;;;9.32;5.78;;;;;;;17.61;59.71;102121.97;10479237;28;20434;-79
2021/07/23 00:07:43;;;;;;;9.40;6.70;;;;;;;16.80;58.85;101977.28;10480097;28;20056;-79
2021/07/23 00:12:46;;;;;;;10.13;5.47;;;;;;;17.68;59.31;102125.56;10445352;28;20420;-80
2021/07/23 00:17:47;;;;;;;18.27;7.07;;;;;;;17.62;59.35;102121.78;10495726;28;20048;-79
2021/07/23 00:22:48;;;;;;;21.75;7.85;;;;;;;17.60;58.50;102123.03;10495979;28;20497;-80
2021/07/23 00:27:52;;;;;;;17.23;7.82;;;;;;;16.45;59.21;101937.31;10476587;28;20383;-79
2021/07/23 00:32:54;;;;;;;8.52;6.13;;;;;;;17.53;59.76;102122.22;10477272;28;20044;-79
2021/07/23 00:37:58;;;;;;;12.20;6.43;;;;;;;17.32;59.93;102123.31;10475621;28;20467;-80
2021/07/23 00:43:01;;;;;;;18.77;9.23;;;;;;;17.28;59.76;102114.66;10458323;28;20080;-79
2021/07/23 00:48:03;;;;;;;10.38;7.78;;;;;;;17.46;60.31;102115.94;10473769;28;20336;-79
2021/07/23 00:53:04;;;;;;;10.13;7.78;;;;;;;17.19;59.88;102078.47;10492380;28;20099;-81
2021/07/23 00:58:15;;;;;;;9.88;7.30;;;;;;;17.20;59.89;102093.00;10442695;28;20108;-79
2021/07/23 01:03:16;;;;;;;14.48;7.72;;;;;;;17.31;59.32;102121.63;10446107;28;20036;-79
2021/07/23 01:08:25;;;;;;;13.02;7.60;;;;;;;17.31;59.57;102114.25;10480081;28;20044;-80
2021/07/23 01:13:26;;;;;;;9.85;7.70;;;;;;;17.31;60.30;102116.16;10498129;28;20052;-80
2021/07/23 01:18:26;;;;;;;11.30;7.78;;;;;;;17.21;60.01;102124.78;10502062;28;20060;-79
2021/07/23 01:23:33;;;;;;;11.18;8.80;;;;;;;17.14;60.17;102121.22;10511254;28;20115;-79
2021/07/23 01:28:35;;;;;;;;;;;;;;;17.03;59.56;102113.63;10488610;28;20033;-80
2021/07/23 01:33:35;;;;;;;16.20;8.88;;;;;;;17.04;60.63;102121.66;10482843;28;20282;-79
2021/07/23 01:38:37;;;;;;;11.70;7.82;;;;;;;16.46;61.11;102036.56;10497495;28;20047;-79
2021/07/23 01:43:38;;;;;;;10.88;7.47;;;;;;;15.04;60.34;101888.06;10461322;28;20055;-79
2021/07/23 01:48:39;;;;;;;18.55;9.55;;;;;;;16.63;60.91;102069.84;10476089;28;20107;-79
2021/07/23 01:53:40;;;;;;;18.33;9.77;;;;;;;16.89;61.19;102132.78;10474216;28;20113;-80
2021/07/23 01:58:44;;;;;;;18.95;9.77;;;;;;;16.91;60.70;102127.97;10489740;28;20045;-79
2021/07/23 02:03:44;;;;;;;12.70;9.23;;;;;;;16.81;60.78;102126.69;10491277;28;20459;-79
2021/07/23 02:08:47;;;;;;;11.98;9.57;;;;;;;16.77;62.25;102125.41;10456974;28;20124;-80
2021/07/23 02:13:48;;;;;;;16.20;9.85;;;;;;;16.87;61.48;102134.88;10469547;28;20048;-79
2021/07/23 02:18:49;;;;;;;13.85;9.00;;;;;;;16.94;60.72;102122.06;10469242;28;20044;-79
2021/07/23 02:23:50;;;;;;;15.07;9.00;;;;;;;16.66;60.17;102075.72;10471459;28;20059;-79
2021/07/23 02:28:51;;;;;;;15.02;10.48;;;;;;;15.86;60.55;101938.13;10454814;28;20052;-79
2021/07/23 02:33:58;;;;;;;14.52;9.45;;;;;;;16.90;60.02;102112.59;10474065;28;20043;-79
2021/07/23 02:39:05;;;;;;;18.27;9.32;;;;;;;16.87;60.03;102104.78;10473991;28;20032;-79
2021/07/23 02:44:21;;;;;;;11.15;8.70;;;;;;;16.84;59.57;102094.25;10455825;28;20417;-79
2021/07/23 02:49:26;;;;;;;25.73;13.27;;;;;;;15.92;61.07;101952.81;10473351;28;20089;-79
2021/07/23 02:54:27;;;;;;;16.17;9.20;;;;;;;16.82;61.23;102129.22;10453818;28;20150;-78
2021/07/23 02:59:30;;;;;;;24.38;12.07;;;;;;;16.79;61.26;102095.97;10486879;28;20521;-79
2021/07/23 03:04:37;;;;;;;11.75;10.30;;;;;;;16.75;60.91;102090.03;10454778;28;20036;-78
2021/07/23 03:09:48;;;;;;;;;;;;;;;16.73;59.78;102081.19;10454159;28;20134;-79
2021/07/23 03:14:49;;;;;;;19.42;12.60;;;;;;;16.78;60.75;102078.69;10465849;28;19987;-80
2021/07/23 03:19:59;;;;;;;14.75;9.93;;;;;;;16.81;60.30;102070.06;10453671;28;20137;-79
2021/07/23 03:25:02;;;;;;;23.20;11.88;;;;;;;16.36;60.64;101998.69;10452150;28;20060;-80
2021/07/23 03:30:04;;;;;;;13.77;11.85;;;;;;;16.78;60.62;102084.16;10492980;28;20081;-79
2021/07/23 03:35:05;;;;;;;19.15;11.55;;;;;;;16.77;60.49;102071.53;10459250;28;20045;-79
2021/07/23 03:40:07;;;;;;;20.52;12.55;;;;;;;16.47;60.96;102014.50;10478490;28;20043;-79
2021/07/23 03:45:08;;;;;;;21.00;11.02;;;;;;;16.75;60.27;102068.16;10496977;28;20142;-79
2021/07/23 03:50:09;;;;;;;16.15;10.38;;;;;;;16.65;60.17;102071.28;10474532;28;20059;-78
2021/07/23 03:55:12;;;;;;;18.90;11.35;;;;;;;16.75;60.46;102054.50;10472424;28;20126;-78
2021/07/23 04:00:19;;;;;;;17.08;11.43;;;;;;;16.79;59.64;102063.16;10455294;28;20033;-78
2021/07/23 04:05:20;;;;;;;16.05;11.93;;;;;;;15.56;60.37;101861.97;10439232;28;20214;-78
2021/07/23 04:10:21;;;;;;;14.00;11.38;;;;;;;16.87;60.17;102055.53;10471537;28;20178;-78
2021/07/23 04:15:21;;;;;;;19.00;13.90;;;;;;;16.32;60.56;101945.50;10487581;28;20056;-78
2021/07/23 04:20:22;;;;;;;30.00;12.23;;;;;;;17.32;60.80;102047.47;10455389;28;20041;-79
2021/07/23 04:25:23;;;;;;;21.42;13.07;;;;;;;17.30;60.18;102010.44;10470894;28;20037;-79
2021/07/23 04:30:23;;;;;;;18.85;11.63;;;;;;;17.82;61.07;102046.94;10470962;28;20029;-79
2021/07/23 04:35:23;;;;;;;15.48;11.10;;;;;;;17.00;60.70;101890.50;10474642;28;20036;-79
2021/07/23 04:40:24;;;;;;;14.70;10.48;;;;;;;18.18;60.99;102045.47;10460660;28;20056;-78
2021/07/23 04:45:25;;;;;;;13.73;9.65;;;;;;;18.47;60.16;102049.50;10478285;28;20443;-78
2021/07/23 04:50:26;;;;;;;25.92;9.60;;;;;;;18.67;59.68;102035.63;10478110;28;20077;-79
2021/07/23 04:55:27;;;;;;;18.25;9.55;;;;;;;18.77;59.38;102033.25;10496720;28;20458;-79
2021/07/23 05:00:31;;;;;;;12.13;8.48;;;;;;;18.63;58.75;101990.50;10476514;28;20040;-79
2021/07/23 05:05:32;;;;;;;8.07;6.40;;;;;;;19.02;58.41;102036.81;10478834;28;20496;-79
2021/07/23 05:10:32;;;;;;;10.98;6.30;;;;;;;18.91;58.50;102040.28;10455544;28;20040;-79
2021/07/23 05:15:33;;;;;;;10.98;7.55;;;;;;;18.65;58.46;101991.13;10455450;28;20082;-79
2021/07/23 05:20:33;;;;;;;9.30;6.75;;;;;;;18.00;58.30;101879.03;10469355;28;20032;-79
2021/07/23 05:25:34;;;;;;;11.48;6.95;;;;;;;18.92;58.95;102046.63;10485817;28;20448;-79
2021/07/23 05:30:34;;;;;;;11.32;8.10;;;;;;;18.03;58.81;101867.63;10453981;28;20028;-79
2021/07/23 05:35:35;;;;;;;15.73;7.35;;;;;;;18.17;57.90;101846.41;10503843;28;20372;-79
2021/07/23 05:40:35;;;;;;;8.20;6.78;;;;;;;19.29;57.54;102007.16;10487446;28;20383;-78
2021/07/23 05:45:41;;;;;;;12.00;7.45;;;;;;;19.62;57.31;102011.44;10484755;28;20029;-82
2021/07/23 05:50:42;;;;;;;8.73;6.63;;;;;;;19.95;57.19;102024.75;10502523;28;20044;-78
2021/07/23 05:55:42;;;;;;;7.07;6.15;;;;;;;20.21;56.41;102020.78;10503210;28;20076;-79
2021/07/23 06:00:44;;;;;;;14.90;6.30;;;;;;;20.15;56.42;102018.13;10505926;28;20228;-82
2021/07/23 06:05:44;;;;;;;11.73;7.13;;;;;;;20.09;56.62;102017.16;10473168;28;20036;-80
2021/07/23 06:10:44;;;;;;;7.63;5.68;;;;;;;20.08;56.66;101968.75;10485413;28;20376;-81
2021/07/23 06:15:45;;;;;;;15.20;8.48;;;;;;;20.32;56.83;101996.28;10502264;28;20079;-81
2021/07/23 06:20:45;;;;;;;6.85;6.25;;;;;;;19.94;56.68;101915.00;10502424;28;20121;-81
2021/07/23 06:25:46;;;;;;;6.93;6.32;;;;;;;20.69;56.44;102008.00;10507646;28;20029;-81
2021/07/23 06:30:46;;;;;;;7.03;5.57;;;;;;;20.89;56.31;102002.13;10504671;28;20093;-81
2021/07/23 06:35:46;;;;;;;7.65;6.18;;;;;;;20.80;55.58;101965.84;10484743;28;20028;-81
2021/07/23 06:40:47;;;;;;;11.52;6.68;;;;;;;21.12;55.78;101976.47;10484554;28;20063;-81
2021/07/23 06:45:54;;;;;;;5.97;5.43;;;;;;;21.45;58.33;102003.41;10466159;28;20035;-81
2021/07/23 06:50:54;;;;;;;10.68;6.00;;;;;;;21.85;54.86;102007.22;10501159;28;20082;-81
2021/07/23 06:55:55;;;;;;;6.03;5.43;;;;;;;21.63;54.56;101969.31;10500528;28;20040;-81
2021/07/23 07:00:55;;;;;;;8.73;5.75;;;;;;;22.03;53.58;102020.81;10481630;28;20139;-81
2021/07/23 07:05:58;;;;;;;5.75;5.18;;;;;;;22.20;52.74;102040.19;10465965;28;20054;-81
2021/07/23 07:10:59;;;;;;;9.52;5.35;;;;;;;22.13;53.05;102020.19;10481614;28;20484;-81
2021/07/23 07:16:01;;;;;;;7.63;4.40;;;;;;;22.19;52.92;102024.75;10499648;28;20135;-80
2021/07/23 07:21:04;;;;;;;11.90;6.18;;;;;;;22.35;52.47;102032.19;10497729;28;20396;-81
2021/07/23 07:26:05;;;;;;;4.85;4.43;;;;;;;22.13;52.62;102007.22;10481708;28;20040;-81
2021/07/23 07:31:05;;;;;;;5.47;4.43;;;;;;;22.26;53.16;102026.25;10465940;28;20042;-81
2021/07/23 07:36:06;;;;;;;6.65;4.72;;;;;;;22.22;51.94;101977.34;10481130;28;20033;-81
2021/07/23 07:41:06;;;;;;;6.05;5.32;;;;;;;22.45;53.26;102026.84;10481011;28;20111;-81
2021/07/23 07:46:07;;;;;;;6.30;4.93;;;;;;;22.85;52.08;102031.38;10480025;28;20036;-81
2021/07/23 07:51:08;;;;;;;5.78;5.25;;;;;;;22.87;51.72;101993.28;10480505;28;20071;-82
2021/07/23 07:56:12;;;;;;;21.33;6.63;;;;;;;22.95;52.43;101973.56;10481136;28;20380;-81
2021/07/23 08:01:14;;;;;;;5.78;5.28;;;;;;;23.10;51.48;102024.59;10464907;28;20045;-81
2021/07/23 08:06:23;;;;;;;13.20;6.28;;;;;;;22.63;52.69;102044.28;10498138;28;20120;-81
2021/07/23 08:11:23;;;;;;;8.50;6.15;;;;;;;22.90;52.17;102022.34;10469155;28;20123;-81
2021/07/23 08:16:24;;;;;;;7.25;4.82;;;;;;;22.94;52.00;101991.22;10516049;28;20066;-81
2021/07/23 08:21:24;;;;;;;9.30;6.78;;;;;;;21.73;52.25;101839.09;10504778;28;20484;-81
2021/07/23 08:26:25;;;;;;;5.38;4.88;;;;;;;22.81;52.00;102023.84;10483723;28;20035;-80
2021/07/23 08:31:27;;;;;;;6.95;5.28;;;;;;;23.13;51.70;102016.66;10471347;28;20039;-81
2021/07/23 08:36:32;;;;;;;10.70;5.10;;;;;;;22.92;50.99;102014.63;10488417;28;20036;-80
2021/07/23 08:41:35;;;;;;;5.75;5.30;;;;;;;23.12;51.59;102027.94;10489322;28;20040;-81
2021/07/23 08:46:35;;;;;;;14.38;6.60;;;;;;;22.10;51.07;101820.13;10488336;28;20064;-80
2021/07/23 08:51:36;;;;;;;8.00;5.78;;;;;;;23.34;49.78;102000.34;10506046;28;20040;-80
2021/07/23 08:56:39;;;;;;;8.32;5.28;;;;;;;23.38;52.38;101996.78;10506261;28;20032;-81
2021/07/23 09:01:59;;;;;;;7.22;5.60;;;;;;;23.18;55.53;101917.22;10488635;28;20044;-81
2021/07/23 09:07:20;;;;;;;13.70;5.78;;;;;;;23.70;54.79;101982.28;10504858;28;20108;-81
2021/07/23 09:12:21;;;;;;;5.55;5.05;;;;;;;23.91;51.19;101966.75;10489094;28;20031;-80
2021/07/23 09:17:21;;;;;;;9.02;5.22;;;;;;;23.38;52.83;101902.81;10487116;28;20106;-83
2021/07/23 09:22:22;;;;;;;8.38;5.82;;;;;;;24.03;49.39;101948.06;10451918;28;20072;-83
2021/07/23 09:27:35;;;;;;;8.32;5.55;;;;;;;24.65;50.06;101935.53;10452100;28;20050;-80
2021/07/23 09:32:35;;;;;;;9.05;6.05;;;;;;;23.86;51.32;101829.19;10486909;28;20090;-79
2021/07/23 09:37:54;;;;;;;12.82;5.43;;;;;;;24.57;51.33;101970.13;10503199;28;20028;-73
2021/07/23 09:42:58;;;;;;;10.75;6.72;;;;;;;24.53;48.83;101946.81;10502520;28;20512;-73
2021/07/23 09:48:12;;;;;;;9.15;5.40;;;;;;;24.35;50.27;101804.09;10502212;28;20036;-73
2021/07/23 09:53:14;;;;;;;5.75;4.68;;;;;;;25.43;49.83;101968.13;10502474;28;20490;-74
2021/07/23 09:58:24;;;;;;;7.80;6.03;;;;;;;25.70;52.39;101956.84;10483623;28;20043;-74
2021/07/23 10:03:27;;;;;;;7.22;6.53;;;;;;;25.00;48.29;101909.16;10484777;28;20061;-74
2021/07/23 10:08:30;;;;;;;7.00;6.32;;;;;;;25.28;46.67;101960.59;10468222;28;20419;-73
2021/07/23 10:13:30;;;;;;;5.93;4.85;;;;;;;25.43;48.19;101943.16;10501595;28;20071;-73
2021/07/23 10:18:31;;;;;;;12.40;6.68;;;;;;;25.19;46.51;101907.59;10466185;28;20538;-74
2021/07/23 10:23:32;;;;;;;10.88;6.82;;;;;;;24.53;46.43;101805.59;10466184;28;20210;-74
2021/07/23 10:28:39;;;;;;;10.23;6.22;;;;;;;24.53;50.14;101957.88;10482409;28;20098;-75
2021/07/23 10:33:55;;;;;;;11.70;5.45;;;;;;;24.08;49.20;101778.44;10503466;28;20094;-75
2021/07/23 10:39:04;;;;;;;7.65;5.68;;;;;;;25.18;48.69;101907.88;10509660;28;20037;-76
2021/07/23 10:44:11;;;;;;;6.15;5.38;;;;;;;24.78;48.84;101904.59;10512873;28;20384;-74
2021/07/23 10:49:26;;;;;;;8.32;6.68;;;;;;;24.34;48.05;101819.00;10499923;28;20033;-75
2021/07/23 10:54:28;;;;;;;8.65;6.95;;;;;;;25.12;48.06;101887.63;10485538;28;20025;-74
2021/07/23 10:59:50;;;;;;;8.65;5.82;;;;;;;24.96;48.36;101878.38;10501415;28;20102;-74
2021/07/23 11:04:51;;;;;;;15.60;6.40;;;;;;;25.55;47.29;101868.88;10503215;28;20043;-75
2021/07/23 11:09:52;;;;;;;7.35;5.60;;;;;;;25.96;45.74;101875.31;10503271;28;20468;-75
2021/07/23 11:15:04;;;;;;;11.40;6.43;;;;;;;26.45;52.34;101859.97;10467204;28;20028;-74
2021/07/23 11:20:08;;;;;;;7.72;6.03;;;;;;;26.74;47.33;101846.34;10502498;28;20049;-76
2021/07/23 11:25:10;;;;;;;23.05;6.22;;;;;;;27.03;44.25;101849.28;10500283;28;20032;-76
2021/07/23 11:30:13;;;;;;;12.75;6.28;;;;;;;26.34;46.45;101870.28;10498928;28;20033;-74
2021/07/23 11:35:14;;;;;;;5.28;4.80;;;;;;;26.05;43.63;101844.25;10497887;28;20058;-75
2021/07/23 11:40:16;;;;;;;9.57;7.22;;;;;;;26.66;44.40;101814.41;10496013;28;20033;-75
2021/07/23 11:45:38;;;;;;;5.70;5.18;;;;;;;26.79;48.01;101814.91;10474998;28;20493;-74
2021/07/23 11:50:49;;;;;;;7.47;5.07;;;;;;;26.61;44.75;101802.47;10493021;28;20051;-75
2021/07/23 11:55:49;;;;;;;6.30;5.53;;;;;;;27.21;42.71;101814.44;10474398;28;20028;-76
2021/07/23 12:00:50;;;;;;;7.43;6.10;;;;;;;26.69;42.37;101823.28;10471285;28;20438;-73
2021/07/23 12:05:51;;;;;;;17.00;6.28;;;;;;;25.91;43.13;101660.78;10488938;28;20436;-74
2021/07/23 12:10:54;;;;;;;7.07;5.65;;;;;;;26.91;43.26;101795.97;10489367;28;20097;-75
2021/07/23 12:15:55;;;;;;;6.50;5.43;;;;;;;26.48;46.01;101780.81;10455927;28;20344;-75
2021/07/23 12:21:07;;;;;;;10.40;6.30;;;;;;;26.73;45.47;101758.53;10476186;28;20028;-73
2021/07/23 12:26:27;;;;;;;8.55;5.65;;;;;;;26.86;43.48;101782.91;10490659;28;20155;-74
2021/07/23 12:31:31;;;;;;;10.13;5.90;;;;;;;26.54;42.59;101765.84;10461590;28;20036;-72
2021/07/23 12:36:58;;;;;;;9.25;5.10;;;;;;;26.31;43.18;101761.72;10495983;28;20151;-75
2021/07/23 12:42:18;;;;;;;11.27;6.32;;;;;;;26.31;42.71;101736.72;10471102;28;20108;-73
2021/07/23 12:47:26;;;;;;;7.00;5.63;;;;;;;27.11;42.48;101745.78;10442277;28;20041;-77
2021/07/23 12:52:34;;;;;;;8.13;5.15;;;;;;;27.00;41.80;101738.66;10477582;28;20448;-76
2021/07/23 12:57:41;;;;;;;5.20;4.68;;;;;;;27.17;41.64;101718.81;10464332;28;20446;-79
2021/07/23 13:02:41;;;;;;;5.43;4.97;;;;;;;27.53;40.55;101729.63;10418836;28;20074;-80
2021/07/23 13:07:42;;;;;;;7.80;5.72;;;;;;;27.03;41.59;101726.94;10418199;28;20052;-76
2021/07/23 13:12:45;;;;;;;6.43;5.53;;;;;;;28.16;39.55;101724.00;10356803;28;20053;-78
2021/07/23 13:17:46;;;;;;;6.55;5.55;;;;;;;27.32;40.91;101713.13;10378689;28;20137;-74
2021/07/23 13:22:49;;;;;;;10.05;6.65;;;;;;;28.05;38.72;101739.19;10353843;28;20136;-75
2021/07/23 13:27:51;;;;;;;6.00;5.40;;;;;;;27.89;39.79;101732.09;10336145;28;20054;-72
2021/07/23 13:32:52;;;;;;;7.30;6.35;;;;;;;28.16;40.77;101723.19;10422906;28;20549;-76
2021/07/23 13:37:53;;;;;;;13.00;7.15;;;;;;;28.58;39.23;101702.06;10452925;28;20243;-77
2021/07/23 13:42:55;;;;;;;7.85;7.18;;;;;;;28.30;39.22;101721.31;10435093;28;20035;-75
2021/07/23 13:47:56;;;;;;;8.05;6.88;;;;;;;29.12;37.45;101714.69;10437519;28;20406;-75
2021/07/23 13:52:56;;;;;;;24.85;7.50;;;;;;;28.40;39.13;101712.91;10455116;28;20175;-77
2021/07/23 13:57:57;;;;;;;7.22;6.32;;;;;;;28.24;37.46;101711.41;10414624;28;20189;-76
2021/07/23 14:02:59;;;;;;;8.32;5.72;;;;;;;27.35;38.85;101692.25;10416060;28;20044;-76
2021/07/23 14:07:59;;;;;;;8.50;7.50;;;;;;;27.79;38.37;101518.72;10449738;28;20037;-76
2021/07/23 14:13:00;;;;;;;8.93;7.90;;;;;;;28.83;37.00;101690.56;10414626;28;20467;-76
2021/07/23 14:18:00;;;;;;;7.28;6.68;;;;;;;28.49;37.65;101694.41;10466261;28;20076;-75
2021/07/23 14:23:00;;;;;;;7.43;5.82;;;;;;;28.62;36.04;101684.47;10491335;28;20037;-76
2021/07/23 14:28:03;;;;;;;9.15;6.32;;;;;;;29.41;36.10;101679.03;10490881;28;20167;-76
2021/07/23 14:33:04;;;;;;;5.57;4.22;;;;;;;27.89;35.06;101501.91;10490656;28;20060;-75
2021/07/23 14:38:04;;;;;;;4.72;4.32;;;;;;;28.79;34.72;101543.72;10492692;28;20439;-76
2021/07/23 14:43:05;;;;;;;7.88;4.30;;;;;;;28.76;34.98;101651.09;10472758;28;20024;-76
2021/07/23 14:48:05;;;;;;;4.35;4.03;;;;;;;28.60;36.10;101586.38;10492686;28;20060;-76
2021/07/23 14:53:06;;;;;;;3.72;3.53;;;;;;;28.24;35.91;101650.94;10491806;28;20044;-76
2021/07/23 14:58:06;;;;;;;13.63;4.65;;;;;;;28.26;36.38;101654.25;10491385;28;20063;-76
2021/07/23 15:03:06;;;;;;;3.80;3.58;;;;;;;28.21;36.33;101637.63;10474693;28;20565;-75
2021/07/23 15:08:07;;;;;;;4.13;3.83;;;;;;;27.99;36.54;101631.78;10491687;28;20104;-76
2021/07/23 15:13:10;;;;;;;4.43;4.03;;;;;;;27.33;36.98;101461.69;10497307;28;20056;-75
2021/07/23 15:18:13;;;;;;;3.60;3.30;;;;;;;27.94;35.49;101590.91;10498871;28;20053;-75
2021/07/23 15:23:14;;;;;;;3.63;3.33;;;;;;;27.68;36.10;101587.59;10481285;28;20078;-76
2021/07/23 15:28:14;;;;;;;3.72;3.33;;;;;;;27.95;35.54;101584.22;10493864;28;20117;-76
2021/07/23 15:33:15;;;;;;;3.67;3.22;;;;;;;28.27;35.35;101613.28;10493435;28;20094;-76
2021/07/23 15:38:15;;;;;;;4.70;4.30;;;;;;;28.29;34.97;101589.59;10477821;28;20040;-76
2021/07/23 15:43:15;;;;;;;5.40;4.28;;;;;;;28.20;35.16;101601.72;10478183;28;20090;-76
2021/07/23 15:48:16;;;;;;;5.30;4.40;;;;;;;28.39;34.80;101612.84;10498519;28;20044;-76
2021/07/23 15:53:16;;;;;;;4.47;4.07;;;;;;;27.32;35.60;101448.09;10495455;28;20029;-77
2021/07/23 15:58:17;;;;;;;5.90;5.30;;;;;;;27.53;36.56;101537.66;10494101;28;20094;-76
2021/07/23 16:03:18;;;;;;;7.75;4.80;;;;;;;27.52;36.62;101542.41;10475847;28;20049;-76
2021/07/23 16:08:18;;;;;;;7.45;4.95;;;;;;;27.52;37.00;101584.16;10493728;28;20360;-75
2021/07/23 16:13:18;;;;;;;5.32;4.55;;;;;;;27.27;37.72;101589.97;10475565;28;20033;-76
2021/07/23 16:18:19;;;;;;;12.18;3.80;;;;;;;27.13;37.76;101573.13;10493620;28;20049;-76
2021/07/23 16:23:19;;;;;;;7.25;5.85;;;;;;;27.08;37.21;101567.59;10491683;28;20071;-76
2021/07/23 16:28:20;;;;;;;4.90;3.85;;;;;;;26.10;38.66;101525.00;10473071;28;20578;-76
2021/07/23 16:33:20;;;;;;;5.57;4.63;;;;;;;25.94;39.72;101555.63;10494920;28;20093;-76
2021/07/23 16:38:21;;;;;;;11.60;7.18;;;;;;;25.51;40.97;101541.34;10500395;28;20074;-76
2021/07/23 16:43:21;;;;;;;14.63;8.05;;;;;;;24.63;42.32;101550.00;10464729;28;20451;-76
2021/07/23 16:48:21;;;;;;;8.07;7.38;;;;;;;24.20;44.00;101523.66;10482006;28;20068;-75
2021/07/23 16:53:22;;;;;;;14.88;9.15;;;;;;;24.18;43.86;101515.59;10500823;28;20111;-76
2021/07/23 16:58:22;;;;;;;9.30;7.45;;;;;;;23.83;44.42;101533.75;10481496;28;20036;-75
2021/07/23 17:03:23;;;;;;;10.73;7.97;;;;;;;23.63;45.36;101494.94;10499758;28;20115;-75
2021/07/23 17:08:23;;;;;;;9.38;8.07;;;;;;;23.63;45.77;101506.00;10480904;28;20039;-76
2021/07/23 17:13:24;;;;;;;13.80;9.10;;;;;;;23.32;45.76;101466.34;10495334;28;20040;-76
2021/07/23 17:18:25;;;;;;;8.77;7.32;;;;;;;23.37;46.22;101461.66;10478222;28;20053;-76
2021/07/23 17:23:25;;;;;;;12.80;8.15;;;;;;;23.50;46.34;101478.88;10477065;28;20032;-76
2021/07/23 17:28:26;;;;;;;13.50;9.05;;;;;;;22.26;46.49;101300.59;10493446;28;20095;-76
2021/07/23 17:33:26;;;;;;;20.63;9.10;;;;;;;23.09;47.07;101446.34;10445872;28;20059;-76
2021/07/23 17:38:27;;;;;;;10.10;8.95;;;;;;;23.25;46.63;101468.53;10479599;28;20124;-75
2021/07/23 17:43:30;;;;;;;19.00;10.10;;;;;;;22.87;47.21;101429.88;10495749;28;20032;-75
2021/07/23 17:48:31;;;;;;;9.77;6.78;;;;;;;22.36;47.44;101349.50;10492041;28;20115;-76
2021/07/23 17:53:33;;;;;;;12.65;7.55;;;;;;;23.30;47.27;101458.31;10492438;28;20139;-76
2021/07/23 17:58:34;;;;;;;15.02;8.68;;;;;;;23.12;47.18;101458.78;10473314;28;20086;-76
2021/07/23 18:03:35;;;;;;;10.80;7.13;;;;;;;23.16;47.74;101487.53;10472906;28;20344;-76
2021/07/23 18:08:37;;;;;;;7.88;7.07;;;;;;;22.86;49.00;101464.13;10474639;28;20059;-75
2021/07/23 18:13:38;;;;;;;8.77;7.80;;;;;;;22.97;48.78;101496.28;10456931;28;20100;-75
2021/07/23 18:18:38;;;;;;;12.15;8.52;;;;;;;22.54;49.00;101435.75;10473378;28;20094;-76
2021/07/23 18:23:38;;;;;;;10.50;7.40;;;;;;;22.69;49.28;101463.47;10491317;28;20389;-75
2021/07/23 18:28:41;;;;;;;8.80;7.47;;;;;;;22.62;49.83;101451.78;10490787;28;20519;-75
2021/07/23 18:33:41;;;;;;;11.85;7.03;;;;;;;22.60;50.43;101471.41;10491835;28;20040;-75
2021/07/23 18:38:42;;;;;;;7.72;6.65;;;;;;;21.48;49.99;101272.66;10458383;28;20119;-75
2021/07/23 18:43:42;;;;;;;8.65;7.50;;;;;;;21.45;51.66;101332.97;10473357;28;20393;-76
2021/07/23 18:48:43;;;;;;;6.80;5.95;;;;;;;20.83;51.84;101229.53;10439921;28;20041;-78
2021/07/23 18:53:43;;;;;;;12.68;6.82;;;;;;;21.80;52.28;101398.66;10444408;28;20036;-77
2021/07/23 18:58:44;;;;;;;7.65;6.78;;;;;;;21.89;52.88;101419.16;10475619;28;20056;-78
2021/07/23 19:03:44;;;;;;;9.88;6.78;;;;;;;21.78;53.33;101436.66;10477818;28;20121;-78
2021/07/23 19:08:45;;;;;;;7.82;6.28;;;;;;;20.62;53.58;101265.06;10495726;28;20068;-76
2021/07/23 19:13:45;;;;;;;8.10;7.00;;;;;;;21.59;54.44;101445.28;10475783;28;20125;-74
2021/07/23 19:18:46;;;;;;;17.98;6.57;;;;;;;21.55;54.47;101441.38;10493572;28;20052;-75
2021/07/23 19:23:46;;;;;;;7.82;7.13;;;;;;;21.44;54.59;101412.06;10493517;28;20036;-75
2021/07/23 19:28:47;;;;;;;15.52;7.25;;;;;;;21.56;54.14;101423.75;10457095;28;20059;-75
2021/07/23 19:33:47;;;;;;;9.73;7.22;;;;;;;21.33;54.53;101432.25;10475129;28;20043;-76
2021/07/23 19:38:47;;;;;;;8.73;6.95;;;;;;;21.33;55.42;101437.78;10455935;28;20110;-76
2021/07/23 19:43:48;;;;;;;8.65;6.80;;;;;;;20.25;55.97;101291.47;10490146;28;20039;-76
2021/07/23 19:48:48;;;;;;;7.72;6.95;;;;;;;20.78;56.25;101398.22;10489963;28;20097;-76
2021/07/23 19:53:49;;;;;;;9.75;8.63;;;;;;;20.55;56.41;101351.63;10492616;28;20124;-76
2021/07/23 19:58:49;;;;;;;10.38;7.93;;;;;;;20.96;56.24;101427.34;10495643;28;20037;-76
2021/07/23 20:03:53;;;;;;;10.82;7.57;;;;;;;20.79;57.39;101426.56;10491367;28;20040;-75
2021/07/23 20:08:54;;;;;;;9.60;7.05;;;;;;;20.49;56.61;101364.47;10495359;28;20043;-76
2021/07/23 20:13:55;;;;;;;13.93;8.43;;;;;;;20.70;56.55;101422.56;10506498;28;20161;-76
2021/07/23 20:18:55;;;;;;;9.55;7.80;;;;;;;20.52;57.89;101421.78;10502760;28;20057;-76
2021/07/23 20:23:56;;;;;;;10.15;7.55;;;;;;;20.66;57.08;101425.84;10502672;28;20429;-75
2021/07/23 20:28:57;;;;;;;11.05;9.05;;;;;;;20.49;57.99;101410.41;10482397;28;20052;-76
2021/07/23 20:33:57;;;;;;;12.63;8.88;;;;;;;19.97;58.82;101362.81;10482042;28;20333;-76
2021/07/23 20:38:58;;;;;;;15.30;9.10;;;;;;;20.24;58.23;101419.91;10500152;28;20116;-76
2021/07/23 20:43:58;;;;;;;11.88;9.00;;;;;;;20.35;58.33;101404.41;10482749;28;20063;-76
2021/07/23 20:48:59;;;;;;;17.58;10.10;;;;;;;20.10;58.25;101374.56;10500578;28;20131;-76
2021/07/23 20:53:59;;;;;;;26.40;9.25;;;;;;;20.19;58.76;101406.88;10483701;28;20047;-76
2021/07/23 20:58:59;;;;;;;10.73;9.63;;;;;;;20.11;59.01;101388.06;10500376;28;20123;-75
2021/07/23 21:04:00;;;;;;;15.45;7.70;;;;;;;19.95;59.54;101378.72;10500474;28;20043;-75
2021/07/23 21:09:00;;;;;;;11.77;7.78;;;;;;;19.99;59.47;101392.81;10480369;28;20038;-76
2021/07/23 21:14:01;;;;;;;9.80;8.75;;;;;;;19.94;59.32;101390.81;10479752;28;20390;-76
2021/07/23 21:19:01;;;;;;;17.73;10.02;;;;;;;19.14;58.70;101246.19;10496108;28;20458;-76
2021/07/23 21:24:02;;;;;;;10.32;8.48;;;;;;;19.44;59.68;101333.81;10499119;28;20491;-76
2021/07/23 21:29:03;;;;;;;12.40;8.48;;;;;;;19.78;60.03;101386.09;10469368;28;20461;-75
2021/07/23 21:34:03;;;;;;;10.40;9.02;;;;;;;18.47;59.56;101171.88;10502973;28;20044;-75
2021/07/23 21:39:04;;;;;;;15.73;8.68;;;;;;;19.49;59.72;101366.03;10502945;28;20029;-76
2021/07/23 21:44:04;;;;;;;18.88;9.35;;;;;;;19.71;59.09;101405.50;10502732;28;20482;-75
2021/07/23 21:49:05;;;;;;;14.40;9.38;;;;;;;19.69;59.27;101398.59;10486292;28;20049;-75
2021/07/23 21:54:06;;;;;;;15.93;9.70;;;;;;;19.62;59.30;101393.22;10502307;28;20380;-76
2021/07/23 21:59:06;;;;;;;15.48;9.23;;;;;;;19.59;59.24;101390.09;10503447;28;20040;-75
2021/07/23 22:04:08;;;;;;;15.77;10.35;;;;;;;19.47;59.69;101391.00;10503545;28;20037;-76
2021/07/23 22:09:08;;;;;;;22.58;9.35;;;;;;;19.22;59.94;101358.38;10503221;28;20541;-76
2021/07/23 22:14:08;;;;;;;14.82;9.55;;;;;;;19.51;59.05;101380.34;10508120;28;20095;-76
2021/07/23 22:19:09;;;;;;;11.88;9.75;;;;;;;19.18;59.93;101354.44;10488980;28;20106;-76
2021/07/23 22:24:09;;;;;;;11.80;9.43;;;;;;;19.42;59.59;101390.06;10501455;28;20051;-76
2021/07/23 22:29:10;;;;;;;17.67;10.25;;;;;;;19.03;59.54;101337.66;10502357;28;20040;-77
2021/07/23 22:34:10;;;;;;;17.73;10.27;;;;;;;18.14;59.98;101184.34;10500338;28;20425;-76
2021/07/23 22:39:11;;;;;;;14.40;10.13;;;;;;;18.14;60.88;101217.25;10482916;28;20067;-76
2021/07/23 22:44:11;;;;;;;17.70;9.90;;;;;;;19.24;60.34;101377.34;10482699;28;20380;-76
2021/07/23 22:49:11;;;;;;;13.35;10.88;;;;;;;18.97;60.47;101346.88;10482505;28;20064;-76
2021/07/23 22:54:12;;;;;;;16.27;10.52;;;;;;;19.19;61.07;101389.06;10483511;28;20037;-77
2021/07/23 22:59:12;;;;;;;20.45;12.45;;;;;;;19.21;61.58;101381.41;10483284;28;20127;-76